Terminal Aerodrome Forecast
Issued by NWS Kansas City/Pleasant Hill, MO

Home | Current Version | Previous Version | Text Only | Print | Product List | Glossary On
Versions: 1 2 3 4 5 6 7 8 9 10 11 12 13 14 15 16 17 18 19
917
FTUS43 KEAX 250520
TAFMCI
TAF
KMCI 250520Z 2506/2606 16009KT P6SM -SHRA VCTS SCT025CB OVC050
      TEMPO 2506/2509 VRB20G35KT 3SM TSRA BKN025CB
     FM251400 16011KT P6SM -SHRA VCTS BKN010CB
     FM251700 18011KT P6SM BKN035=

USA.gov is the U.S. government's official web portal to all federal, state and local government web resources and services.